Time;durP1;ratioP1;P1;durP2;ratioP2;P2;SDS_P1;SDS_P2;PMS_P1;PMS_P2;Temp;Humidity;BMP_temperature;BMP_pressure;BME280_temperature;BME280_humidity;BME280_pressure;Samples;Min_cycle;Max_cycle;Signal;HPM_P1;HPM_P2
2022/08/01 00:01:06;;;;;;;0.10;0.05;;;24.90;81.50;;;;;;4972713;28;20090;-69
2022/08/01 00:03:31;;;;;;;0.52;0.20;;;24.90;81.90;;;;;;4972293;28;20113;-69
2022/08/01 00:05:57;;;;;;;0.03;0.03;;;24.90;82.60;;;;;;4971353;28;20027;-68
2022/08/01 00:08:23;;;;;;;11.40;0.52;;;24.80;83.20;;;;;;4972478;28;20359;-69
2022/08/01 00:10:48;;;;;;;0.20;0.20;;;24.70;83.60;;;;;;4972196;28;20050;-69
2022/08/01 00:13:14;;;;;;;0.10;0.10;;;24.70;84.30;;;;;;4970810;28;20117;-69
2022/08/01 00:15:40;;;;;;;0.32;0.30;;;24.70;84.70;;;;;;4972562;28;20038;-68
2022/08/01 00:18:06;;;;;;;0.10;0.10;;;24.60;85.00;;;;;;4971161;28;20089;-68
2022/08/01 00:20:31;;;;;;;0.15;0.10;;;24.60;85.50;;;;;;4986883;28;20023;-68
2022/08/01 00:22:57;;;;;;;0.00;0.00;;;24.60;85.80;;;;;;4972018;28;20621;-68
2022/08/01 00:25:23;;;;;;;0.13;0.13;;;24.50;86.20;;;;;;4972524;28;20026;-68
2022/08/01 00:27:48;;;;;;;0.22;0.15;;;24.50;86.40;;;;;;4972606;28;20521;-68
2022/08/01 00:30:14;;;;;;;0.57;0.43;;;24.40;86.70;;;;;;4971894;28;20046;-68
2022/08/01 00:32:42;;;;;;;0.00;0.00;;;24.40;87.10;;;;;;4971994;28;20094;-69
2022/08/01 00:35:08;;;;;;;0.10;0.10;;;24.40;87.60;;;;;;4970879;28;20039;-69
2022/08/01 00:37:33;;;;;;;0.20;0.20;;;24.30;88.30;;;;;;4970882;28;20034;-68
2022/08/01 00:39:59;;;;;;;0.52;0.32;;;24.30;88.90;;;;;;4972016;28;20031;-69
2022/08/01 00:42:25;;;;;;;0.13;0.13;;;24.20;89.40;;;;;;4971760;28;20038;-69
2022/08/01 00:44:50;;;;;;;4.47;1.00;;;24.10;90.00;;;;;;4974279;28;20034;-68
2022/08/01 00:47:16;;;;;;;0.35;0.35;;;24.10;90.30;;;;;;4978710;28;20030;-69
2022/08/01 00:49:42;;;;;;;0.10;0.10;;;24.10;90.50;;;;;;4978277;28;20030;-69
2022/08/01 00:52:09;;;;;;;0.38;0.32;;;24.10;90.70;;;;;;4976993;28;20030;-68
2022/08/01 00:54:35;;;;;;;0.00;0.00;;;24.10;91.00;;;;;;4977426;28;20034;-69
2022/08/01 00:57:02;;;;;;;0.20;0.10;;;24.10;91.10;;;;;;4993664;28;20022;-68
2022/08/01 00:59:27;;;;;;;0.00;0.00;;;24.00;91.30;;;;;;4976926;28;20077;-69
2022/08/01 01:01:54;;;;;;;0.55;0.32;;;24.00;91.60;;;;;;4978487;28;20117;-69
2022/08/01 01:04:19;;;;;;;0.08;0.08;;;24.00;92.20;;;;;;4973902;28;20033;-69
2022/08/01 01:07:16;;;;;;;0.15;0.15;;;23.90;92.00;;;;;;4963651;28;20031;-68
2022/08/01 01:10:16;;;;;;;0.08;0.08;;;23.90;92.20;;;;;;4958938;28;20019;-69
2022/08/01 01:13:00;;;;;;;0.00;0.00;;;23.90;92.60;;;;;;4976709;28;20026;-69
2022/08/01 01:15:54;;;;;;;0.50;0.20;;;23.70;93.10;;;;;;4977370;28;20038;-69
2022/08/01 01:18:34;;;;;;;0.00;0.00;;;23.70;93.60;;;;;;4976884;23;20051;-62
2022/08/01 01:21:17;;;;;;;0.63;0.30;;;23.70;93.80;;;;;;4941638;29;20027;-63
2022/08/01 01:24:07;;;;;;;0.00;0.00;;;23.70;94.10;;;;;;4962806;28;20447;-62
2022/08/01 01:27:13;;;;;;;0.25;0.10;;;23.80;94.30;;;;;;4978533;28;20394;-63
2022/08/01 01:29:48;;;;;;;0.35;0.35;;;23.80;94.40;;;;;;4958362;29;20047;-63
2022/08/01 01:32:23;;;;;;;0.22;0.10;;;23.70;94.70;;;;;;4957503;28;20031;-64
2022/08/01 01:34:53;;;;;;;0.08;0.08;;;23.70;95.00;;;;;;4957706;28;20130;-63
2022/08/01 01:37:25;;;;;;;1.52;0.47;;;23.60;95.30;;;;;;4957250;28;20038;-63
2022/08/01 01:39:52;;;;;;;0.00;0.00;;;23.70;95.30;;;;;;4956914;28;20023;-63
2022/08/01 01:42:19;;;;;;;0.00;0.00;;;23.70;95.40;;;;;;4941055;28;20039;-63
2022/08/01 01:44:49;;;;;;;0.10;0.10;;;23.70;95.70;;;;;;4938209;29;20020;-63
2022/08/01 01:47:17;;;;;;;0.08;0.08;;;23.60;95.90;;;;;;4938286;29;20038;-63
2022/08/01 01:49:47;;;;;;;0.00;0.00;;;23.60;96.20;;;;;;4938868;29;20575;-63
2022/08/01 01:52:16;;;;;;;0.00;0.00;;;23.60;96.30;;;;;;4937848;29;20067;-63
2022/08/01 01:54:49;;;;;;;0.08;0.00;;;23.50;96.70;;;;;;4938511;29;20597;-63
2022/08/01 01:57:16;;;;;;;0.00;0.00;;;23.40;97.00;;;;;;4935475;29;20034;-63
2022/08/01 01:59:44;;;;;;;0.00;0.00;;;23.40;97.40;;;;;;4936495;29;20119;-63
2022/08/01 02:02:11;;;;;;;2.92;0.75;;;23.40;97.60;;;;;;4934999;29;20043;-63
2022/08/01 02:04:44;;;;;;;0.82;0.73;;;23.40;97.90;;;;;;4934815;29;20144;-63
2022/08/01 02:07:17;;;;;;;0.00;0.00;;;23.30;98.10;;;;;;4944407;28;20109;-63
2022/08/01 02:09:43;;;;;;;0.10;0.00;;;23.20;98.20;;;;;;4953653;29;20133;-63
2022/08/01 02:12:15;;;;;;;0.00;0.00;;;23.30;98.50;;;;;;4954084;29;20034;-63
2022/08/01 02:14:41;;;;;;;0.00;0.00;;;23.20;98.60;;;;;;4951985;29;20043;-62
2022/08/01 02:17:11;;;;;;;0.00;0.00;;;23.20;98.90;;;;;;4934520;29;20058;-63
2022/08/01 02:19:38;;;;;;;0.00;0.00;;;23.10;99.20;;;;;;4934500;29;20053;-63
2022/08/01 02:22:25;;;;;;;0.00;0.00;;;23.10;99.50;;;;;;4934750;29;20447;-63
2022/08/01 02:25:23;;;;;;;0.30;0.25;;;23.10;99.70;;;;;;4935899;29;20031;-63
2022/08/01 02:28:09;;;;;;;1.65;0.63;;;23.10;99.80;;;;;;4934657;29;20500;-63
2022/08/01 02:30:39;;;;;;;1.08;0.70;;;23.10;99.90;;;;;;4934317;29;20384;-63
2022/08/01 02:33:21;;;;;;;0.00;0.00;;;23.10;99.90;;;;;;4934649;29;20071;-63
2022/08/01 02:35:52;;;;;;;0.10;0.10;;;23.00;99.90;;;;;;4935737;29;20078;-63
2022/08/01 02:38:20;;;;;;;0.93;0.35;;;22.90;99.90;;;;;;4934535;29;20520;-63
2022/08/01 02:40:49;;;;;;;0.00;0.00;;;23.00;99.90;;;;;;4918544;29;20036;-63
2022/08/01 02:43:21;;;;;;;0.10;0.10;;;23.00;99.90;;;;;;4933976;29;20448;-63
2022/08/01 02:46:01;;;;;;;0.10;0.00;;;23.00;99.90;;;;;;4934773;29;20023;-63
2022/08/01 02:48:29;;;;;;;0.10;0.10;;;23.00;99.90;;;;;;4935374;29;20035;-63
2022/08/01 02:50:59;;;;;;;0.13;0.10;;;22.90;99.90;;;;;;4934289;29;20488;-63
2022/08/01 02:53:27;;;;;;;0.10;0.00;;;22.90;99.90;;;;;;4934001;29;20122;-63
2022/08/01 02:55:54;;;;;;;0.00;0.00;;;23.00;99.90;;;;;;4934218;29;20043;-63
2022/08/01 02:58:23;;;;;;;0.00;0.00;;;23.00;99.90;;;;;;4934101;29;20175;-63
2022/08/01 03:00:50;;;;;;;0.00;0.00;;;23.00;99.90;;;;;;4935062;29;20042;-63
2022/08/01 03:03:17;;;;;;;0.00;0.00;;;23.00;99.90;;;;;;4933572;29;20122;-64
2022/08/01 03:05:45;;;;;;;0.00;0.00;;;23.00;99.90;;;;;;4935362;29;20071;-63
2022/08/01 03:08:13;;;;;;;0.00;0.00;;;23.00;99.90;;;;;;4949953;28;20491;-63
2022/08/01 03:10:42;;;;;;;0.20;0.17;;;22.90;99.90;;;;;;4953843;28;20102;-63
2022/08/01 03:13:10;;;;;;;0.38;0.30;;;22.90;99.90;;;;;;4952823;29;20050;-63
2022/08/01 03:15:40;;;;;;;0.13;0.13;;;22.90;99.90;;;;;;4943364;29;20119;-63
2022/08/01 03:18:09;;;;;;;0.20;0.20;;;22.90;99.90;;;;;;4933722;29;20107;-63
2022/08/01 03:20:35;;;;;;;0.00;0.00;;;22.80;99.90;;;;;;4933360;29;20392;-63
2022/08/01 03:23:08;;;;;;;0.05;0.05;;;22.90;99.90;;;;;;4933094;29;20122;-63
2022/08/01 03:25:38;;;;;;;0.52;0.25;;;22.80;99.90;;;;;;4934691;29;20032;-63
2022/08/01 03:28:06;;;;;;;5.13;0.83;;;22.90;99.90;;;;;;4934881;29;20046;-63
2022/08/01 03:30:35;;;;;;;0.00;0.00;;;22.90;99.90;;;;;;4933308;29;20039;-63
2022/08/01 03:33:01;;;;;;;0.00;0.00;;;22.90;99.90;;;;;;4934535;29;20106;-63
2022/08/01 03:35:34;;;;;;;0.00;0.00;;;22.90;99.90;;;;;;4933467;29;20036;-63
2022/08/01 03:38:02;;;;;;;1.08;0.10;;;22.90;99.90;;;;;;4933438;29;20062;-63
2022/08/01 03:40:45;;;;;;;0.00;0.00;;;22.90;99.90;;;;;;4934025;29;20397;-63
2022/08/01 03:43:26;;;;;;;0.00;0.00;;;22.90;99.90;;;;;;4933025;29;20404;-63
2022/08/01 03:45:54;;;;;;;0.00;0.00;;;22.80;99.90;;;;;;4933523;29;20127;-63
2022/08/01 03:48:27;;;;;;;0.00;0.00;;;22.80;99.90;;;;;;4934249;29;20024;-63
2022/08/01 03:50:54;;;;;;;0.00;0.00;;;22.80;99.90;;;;;;4932883;29;20399;-63
2022/08/01 03:53:25;;;;;;;0.10;0.10;;;22.80;99.90;;;;;;4932823;29;20027;-63
2022/08/01 03:55:53;;;;;;;0.00;0.00;;;22.80;99.90;;;;;;4933416;29;20111;-63
2022/08/01 03:58:21;;;;;;;0.00;0.00;;;22.70;99.90;;;;;;4933276;29;20031;-63
2022/08/01 04:00:48;;;;;;;0.10;0.10;;;22.70;99.90;;;;;;4932657;29;20507;-63
2022/08/01 04:03:14;;;;;;;0.00;0.00;;;22.70;99.90;;;;;;4932392;29;20036;-63
2022/08/01 04:05:42;;;;;;;0.00;0.00;;;22.80;99.90;;;;;;4934116;29;20395;-63
2022/08/01 04:08:08;;;;;;;0.00;0.00;;;22.80;99.90;;;;;;4951130;28;20031;-63
2022/08/01 04:10:34;;;;;;;0.10;0.00;;;22.80;99.90;;;;;;4952465;28;20035;-63
2022/08/01 04:13:00;;;;;;;0.38;0.20;;;22.80;99.90;;;;;;4953044;28;20027;-63
2022/08/01 04:15:26;;;;;;;0.00;0.00;;;22.70;99.90;;;;;;4943931;29;20040;-63
2022/08/01 04:17:53;;;;;;;0.00;0.00;;;22.80;99.90;;;;;;4933774;29;20063;-63
2022/08/01 04:20:20;;;;;;;0.00;0.00;;;22.80;99.90;;;;;;4933017;29;20031;-75
2022/08/01 04:22:46;;;;;;;3.72;1.65;;;22.80;99.90;;;;;;4932620;29;20106;-75
2022/08/01 04:25:21;;;;;;;0.88;0.17;;;22.90;99.90;;;;;;4933686;29;20512;-75
2022/08/01 04:27:52;;;;;;;0.00;0.00;;;22.90;99.90;;;;;;4932639;29;20024;-75
2022/08/01 04:30:29;;;;;;;0.00;0.00;;;22.90;99.90;;;;;;4932382;29;20130;-75
2022/08/01 04:33:00;;;;;;;0.10;0.10;;;23.00;99.90;;;;;;4933755;29;20118;-75
2022/08/01 04:35:28;;;;;;;0.00;0.00;;;23.10;99.90;;;;;;4933782;29;20043;-75
2022/08/01 04:37:54;;;;;;;0.30;0.30;;;23.10;99.90;;;;;;4933480;29;20036;-75
2022/08/01 04:40:21;;;;;;;0.00;0.00;;;23.20;99.90;;;;;;4931984;29;20028;-75
2022/08/01 04:42:49;;;;;;;0.00;0.00;;;23.10;99.90;;;;;;4932040;29;20039;-76
2022/08/01 04:45:16;;;;;;;0.00;0.00;;;23.10;99.90;;;;;;4932501;29;20024;-75
2022/08/01 04:47:43;;;;;;;0.00;0.00;;;23.10;99.90;;;;;;4933668;29;20055;-75
2022/08/01 04:50:10;;;;;;;0.00;0.00;;;23.20;99.90;;;;;;4933340;29;20027;-75
2022/08/01 04:52:37;;;;;;;0.08;0.08;;;23.30;99.90;;;;;;4916378;29;20043;-75
2022/08/01 04:55:06;;;;;;;0.10;0.10;;;23.20;99.90;;;;;;4932299;29;20038;-75
2022/08/01 04:57:36;;;;;;;0.10;0.10;;;23.20;99.90;;;;;;4916575;29;20082;-74
2022/08/01 05:00:03;;;;;;;0.03;0.03;;;23.20;99.90;;;;;;4932005;29;20604;-76
2022/08/01 05:02:29;;;;;;;0.03;0.03;;;23.30;99.90;;;;;;4933317;29;20051;-74
2022/08/01 05:04:55;;;;;;;0.17;0.05;;;23.20;99.90;;;;;;4933250;29;20118;-74
2022/08/01 05:07:21;;;;;;;0.10;0.10;;;23.20;99.90;;;;;;4943791;28;20407;-75
2022/08/01 05:09:47;;;;;;;0.03;0.03;;;23.10;99.90;;;;;;4952374;28;20027;-75
2022/08/01 05:12:13;;;;;;;0.00;0.00;;;23.20;99.90;;;;;;4952242;28;20115;-75
2022/08/01 05:14:39;;;;;;;0.43;0.43;;;23.20;99.90;;;;;;4949436;29;20110;-76
2022/08/01 05:17:08;;;;;;;0.00;0.00;;;23.20;99.90;;;;;;4931990;29;20115;-75
2022/08/01 05:19:36;;;;;;;0.00;0.00;;;23.20;99.90;;;;;;4932922;29;20031;-75
2022/08/01 05:22:06;;;;;;;0.00;0.00;;;23.20;99.90;;;;;;4932811;29;20027;-75
2022/08/01 05:24:33;;;;;;;0.00;0.00;;;23.20;99.90;;;;;;4933221;29;20165;-75
2022/08/01 05:27:00;;;;;;;1.92;0.95;;;23.10;99.90;;;;;;4932919;29;20032;-75
2022/08/01 05:29:26;;;;;;;0.20;0.20;;;23.10;99.90;;;;;;4935812;29;20284;-75
2022/08/01 05:31:52;;;;;;;1.88;0.75;;;23.10;99.90;;;;;;4946282;28;20040;-75
2022/08/01 05:34:19;;;;;;;0.00;0.00;;;23.10;99.90;;;;;;4942466;29;20058;-76
2022/08/01 05:36:45;;;;;;;6.03;2.28;;;23.10;99.90;;;;;;4900786;28;20575;-76
2022/08/01 05:39:12;;;;;;;0.00;0.00;;;23.10;99.90;;;;;;4944198;29;20047;-76
2022/08/01 05:41:39;;;;;;;0.25;0.22;;;23.10;99.90;;;;;;4939880;29;20027;-76
2022/08/01 05:44:06;;;;;;;0.00;0.00;;;23.20;99.90;;;;;;4936919;29;20090;-75
2022/08/01 05:46:33;;;;;;;0.47;0.45;;;23.20;99.90;;;;;;4938897;29;20630;-74
2022/08/01 05:49:00;;;;;;;0.05;0.03;;;23.10;99.90;;;;;;4935693;29;20795;-76
2022/08/01 05:51:27;;;;;;;0.00;0.00;;;23.20;99.90;;;;;;4937364;29;20559;-77
2022/08/01 05:53:53;;;;;;;0.00;0.00;;;23.10;99.90;;;;;;4943225;29;20034;-78
2022/08/01 05:56:20;;;;;;;0.13;0.03;;;23.00;99.90;;;;;;4941408;29;20099;-77
2022/08/01 05:58:47;;;;;;;1.65;0.08;;;23.00;99.90;;;;;;4938183;29;20044;-77
2022/08/01 06:01:12;;;;;;;0.00;0.00;;;22.90;99.90;;;;;;4935612;29;20436;-75
2022/08/01 06:03:38;;;;;;;0.00;0.00;;;23.00;99.90;;;;;;4935834;29;20060;-75
2022/08/01 06:06:04;;;;;;;0.10;0.10;;;23.00;99.90;;;;;;4936472;29;20547;-77
2022/08/01 06:08:30;;;;;;;0.00;0.00;;;23.00;99.90;;;;;;4955619;28;20379;-76
2022/08/01 06:10:56;;;;;;;0.38;0.30;;;22.90;99.90;;;;;;4940009;29;20036;-77
2022/08/01 06:13:22;;;;;;;1.05;0.57;;;22.90;99.90;;;;;;4912988;29;20051;-75
2022/08/01 06:15:48;;;;;;;0.63;0.40;;;23.00;99.90;;;;;;4939088;29;20043;-75
2022/08/01 06:18:15;;;;;;;0.10;0.10;;;23.10;99.90;;;;;;4934993;29;20114;-76
2022/08/01 06:20:40;;;;;;;0.00;0.00;;;23.10;99.90;;;;;;4918469;29;20032;-81
2022/08/01 06:23:06;;;;;;;0.00;0.00;;;23.20;99.90;;;;;;4935336;29;20031;-79
2022/08/01 06:25:33;;;;;;;0.00;0.00;;;23.40;99.90;;;;;;4935950;29;20787;-79
2022/08/01 06:27:59;;;;;;;0.00;0.00;;;23.50;99.90;;;;;;4936013;29;20055;-79
2022/08/01 06:30:25;;;;;;;0.00;0.00;;;23.60;99.90;;;;;;4935688;29;20240;-69
2022/08/01 06:32:51;;;;;;;1.00;0.25;;;23.60;99.90;;;;;;4933180;29;20055;-69
2022/08/01 06:35:17;;;;;;;0.00;0.00;;;23.70;99.90;;;;;;4935229;29;20437;-68
2022/08/01 06:37:44;;;;;;;0.00;0.00;;;23.70;99.90;;;;;;4935056;29;20099;-69
2022/08/01 06:40:11;;;;;;;0.00;0.00;;;23.70;99.90;;;;;;4934734;29;20032;-69
2022/08/01 06:42:37;;;;;;;0.10;0.10;;;23.70;99.90;;;;;;4934874;29;20114;-68
2022/08/01 06:45:05;;;;;;;0.38;0.30;;;23.60;99.90;;;;;;4945234;29;20126;-69
2022/08/01 06:47:30;;;;;;;1.00;0.80;;;23.50;99.90;;;;;;4954245;28;20090;-68
2022/08/01 06:49:56;;;;;;;1.23;0.65;;;23.50;99.90;;;;;;4940621;29;20437;-66
2022/08/01 06:52:22;;;;;;;0.00;0.00;;;23.60;99.90;;;;;;4933305;29;20028;-68
2022/08/01 06:54:48;;;;;;;0.00;0.00;;;23.70;99.90;;;;;;4935549;29;20035;-67
2022/08/01 06:57:14;;;;;;;0.00;0.00;;;23.80;99.90;;;;;;4934958;29;20042;-68
2022/08/01 06:59:40;;;;;;;0.38;0.35;;;23.90;99.90;;;;;;4934183;29;20396;-66
2022/08/01 07:02:06;;;;;;;7.13;1.35;;;24.10;99.90;;;;;;4934781;29;20491;-68
2022/08/01 07:04:32;;;;;;;0.00;0.00;;;24.20;99.90;;;;;;4934834;29;20023;-67
2022/08/01 07:06:57;;;;;;;0.00;0.00;;;24.20;99.90;;;;;;4944004;29;20108;-66
2022/08/01 07:09:23;;;;;;;0.47;0.20;;;24.20;99.90;;;;;;4933968;29;20032;-67
2022/08/01 07:11:50;;;;;;;0.00;0.00;;;24.20;99.90;;;;;;4934700;29;20481;-69
2022/08/01 07:14:16;;;;;;;0.00;0.00;;;24.30;99.90;;;;;;4934613;29;20034;-68
2022/08/01 07:16:41;;;;;;;0.00;0.00;;;24.40;99.80;;;;;;4934645;29;20487;-68
2022/08/01 07:19:07;;;;;;;0.10;0.10;;;24.50;99.90;;;;;;4955317;23;20526;-72
2022/08/01 07:21:34;;;;;;;0.35;0.28;;;24.60;99.50;;;;;;4937804;28;20031;-72
2022/08/01 07:24:00;;;;;;;0.00;0.00;;;24.70;99.50;;;;;;4933680;29;20035;-72
2022/08/01 07:26:27;;;;;;;0.35;0.35;;;24.80;99.10;;;;;;4932998;29;20563;-74
2022/08/01 07:28:53;;;;;;;0.00;0.00;;;24.80;99.10;;;;;;4922667;29;20489;-72
2022/08/01 07:31:19;;;;;;;0.00;0.00;;;24.90;98.90;;;;;;4897418;29;20048;-73
2022/08/01 07:33:45;;;;;;;0.10;0.10;;;25.00;98.90;;;;;;4896724;29;20048;-72
2022/08/01 07:36:11;;;;;;;0.00;0.00;;;25.10;98.70;;;;;;4912834;29;20080;-73
2022/08/01 07:38:37;;;;;;;0.10;0.10;;;25.20;98.30;;;;;;4912581;29;20458;-71
2022/08/01 07:41:03;;;;;;;0.55;0.35;;;25.00;98.40;;;;;;4926781;29;20519;-71
2022/08/01 07:43:29;;;;;;;0.00;0.00;;;25.10;98.00;;;;;;4931623;29;20047;-72
2022/08/01 07:45:55;;;;;;;1.55;1.40;;;25.10;98.30;;;;;;4931242;29;20058;-72
2022/08/01 07:48:23;;;;;;;0.17;0.17;;;24.80;98.30;;;;;;4931513;29;20035;-71
2022/08/01 07:50:52;;;;;;;0.70;0.45;;;25.00;98.30;;;;;;4914873;29;20027;-71
2022/08/01 07:53:18;;;;;;;0.20;0.13;;;25.30;98.40;;;;;;4930742;29;20655;-71
2022/08/01 07:55:44;;;;;;;0.43;0.22;;;24.80;98.30;;;;;;4933264;29;20139;-71
2022/08/01 07:58:09;;;;;;;0.00;0.00;;;24.70;99.00;;;;;;4931682;29;20039;-71
2022/08/01 08:00:35;;;;;;;0.10;0.10;;;25.10;98.60;;;;;;4933258;29;20126;-72
2022/08/01 08:03:01;;;;;;;0.00;0.00;;;25.20;97.80;;;;;;4948118;28;20039;-71
2022/08/01 08:05:27;;;;;;;0.00;0.00;;;25.10;98.00;;;;;;4933773;29;20035;-71
2022/08/01 08:07:53;;;;;;;0.03;0.03;;;24.50;98.60;;;;;;4919103;29;20032;-70
2022/08/01 08:10:19;;;;;;;0.38;0.30;;;24.50;99.10;;;;;;4922848;29;20496;-69
2022/08/01 08:12:46;;;;;;;0.00;0.00;;;24.60;98.50;;;;;;4933754;29;20196;-70
2022/08/01 08:15:13;;;;;;;0.00;0.00;;;24.80;98.60;;;;;;4933369;29;20383;-71
2022/08/01 08:17:39;;;;;;;2.45;0.47;;;25.10;97.80;;;;;;4932148;29;20134;-71
2022/08/01 08:20:07;;;;;;;0.00;0.00;;;25.30;97.70;;;;;;4933546;29;20131;-67
2022/08/01 08:22:33;;;;;;;0.85;0.40;;;25.10;97.60;;;;;;4932240;29;20107;-67
2022/08/01 08:24:59;;;;;;;0.38;0.38;;;24.70;97.40;;;;;;4933852;29;20115;-68
2022/08/01 08:27:25;;;;;;;0.25;0.25;;;24.60;97.90;;;;;;4930194;29;20050;-68
2022/08/01 08:29:51;;;;;;;0.00;0.00;;;25.10;97.60;;;;;;4930596;29;20552;-68
2022/08/01 08:32:17;;;;;;;0.40;0.30;;;25.10;97.40;;;;;;4932542;29;20115;-70
2022/08/01 08:34:42;;;;;;;0.32;0.32;;;25.10;97.70;;;;;;4932799;29;20036;-68
2022/08/01 08:37:09;;;;;;;0.00;0.00;;;25.30;97.50;;;;;;4931826;29;20039;-69
2022/08/01 08:39:34;;;;;;;4.85;0.75;;;25.40;97.10;;;;;;4932417;29;20032;-68
2022/08/01 08:42:01;;;;;;;0.00;0.00;;;25.30;97.10;;;;;;4933828;29;20039;-69
2022/08/01 08:44:28;;;;;;;0.08;0.08;;;25.30;97.10;;;;;;4933175;29;20031;-69
2022/08/01 08:46:55;;;;;;;0.00;0.00;;;25.50;96.90;;;;;;4933749;29;20499;-69
2022/08/01 08:49:28;;;;;;;0.47;0.47;;;25.70;96.30;;;;;;4947408;29;20075;-69
2022/08/01 08:51:59;;;;;;;0.00;0.00;;;25.60;96.20;;;;;;4933685;29;20031;-69
2022/08/01 08:54:26;;;;;;;0.00;0.00;;;25.80;96.00;;;;;;4947509;28;20488;-69
2022/08/01 08:56:54;;;;;;;0.00;0.00;;;25.80;96.20;;;;;;4948130;29;20473;-69
2022/08/01 08:59:20;;;;;;;0.00;0.00;;;25.60;96.50;;;;;;4932662;29;20488;-68
2022/08/01 09:01:48;;;;;;;0.08;0.08;;;25.80;96.00;;;;;;4920867;29;20040;-68
2022/08/01 09:04:14;;;;;;;0.00;0.00;;;26.00;95.80;;;;;;4932764;29;20024;-67
2022/08/01 09:06:40;;;;;;;0.00;0.00;;;26.20;95.50;;;;;;4935802;29;20042;-67
2022/08/01 09:09:08;;;;;;;0.15;0.15;;;26.10;95.40;;;;;;4936764;29;20024;-68
2022/08/01 09:11:35;;;;;;;0.38;0.15;;;26.10;95.60;;;;;;4937325;29;20028;-67
2022/08/01 09:14:12;;;;;;;0.10;0.10;;;26.30;95.40;;;;;;4936518;29;20484;-67
2022/08/01 09:16:43;;;;;;;0.00;0.00;;;26.30;95.00;;;;;;4906640;28;20427;-67
2022/08/01 09:19:19;;;;;;;;;;;26.00;95.30;;;;;;4936037;29;20043;-66
2022/08/01 09:22:01;;;;;;;0.00;0.00;;;26.40;95.30;;;;;;4937259;29;19918;-68
2022/08/01 09:24:29;;;;;;;0.03;0.03;;;26.50;95.00;;;;;;4935881;29;20036;-66
2022/08/01 09:26:56;;;;;;;0.45;0.25;;;26.10;94.80;;;;;;4935569;29;20043;-66
2022/08/01 09:29:26;;;;;;;0.20;0.10;;;25.70;95.70;;;;;;4934206;29;20032;-68
2022/08/01 09:31:53;;;;;;;0.00;0.00;;;26.00;95.30;;;;;;4936635;29;20040;-68
2022/08/01 09:34:32;;;;;;;0.00;0.00;;;26.30;95.40;;;;;;4936427;29;20035;-68
2022/08/01 09:37:03;;;;;;;0.20;0.20;;;26.30;94.70;;;;;;4936443;29;20483;-68
2022/08/01 09:39:33;;;;;;;0.00;0.00;;;26.30;94.80;;;;;;4934816;29;20031;-68
2022/08/01 09:42:01;;;;;;;;;;;26.40;94.70;;;;;;4936517;28;20032;-68
2022/08/01 09:44:43;;;;;;;0.00;0.00;;;26.70;94.50;;;;;;4934747;29;20327;-68
2022/08/01 09:47:10;;;;;;;0.00;0.00;;;27.00;94.10;;;;;;4951128;29;20031;-68
2022/08/01 09:49:39;;;;;;;0.55;0.47;;;27.00;93.80;;;;;;4933365;29;20059;-68
2022/08/01 09:52:31;;;;;;;0.00;0.00;;;26.80;93.60;;;;;;4935504;29;20485;-67
2022/08/01 09:54:59;;;;;;;0.00;0.00;;;26.50;94.30;;;;;;4935897;28;20055;-67
2022/08/01 09:57:27;;;;;;;0.00;0.00;;;26.70;94.10;;;;;;4951128;28;20102;-67
2022/08/01 10:00:00;;;;;;;0.65;0.35;;;26.60;94.40;;;;;;4935835;29;20035;-68
2022/08/01 10:02:38;;;;;;;0.20;0.20;;;26.50;93.80;;;;;;4936313;29;20031;-67
2022/08/01 10:05:09;;;;;;;0.03;0.03;;;26.40;94.10;;;;;;4953330;28;20074;-68
2022/08/01 10:07:54;;;;;;;0.52;0.32;;;26.60;94.10;;;;;;4919697;29;20070;-69
2022/08/01 10:10:20;;;;;;;0.00;0.00;;;26.80;94.20;;;;;;4934395;29;20028;-67
2022/08/01 10:12:48;;;;;;;0.05;0.05;;;26.60;93.70;;;;;;4918828;29;20396;-68
2022/08/01 10:15:20;;;;;;;0.00;0.00;;;26.70;94.00;;;;;;4918843;29;20046;-68
2022/08/01 10:18:00;;;;;;;0.00;0.00;;;27.10;93.40;;;;;;4935521;29;20028;-68
2022/08/01 10:20:33;;;;;;;0.98;0.40;;;27.20;93.60;;;;;;4934304;29;20032;-69
2022/08/01 10:23:03;;;;;;;0.00;0.00;;;27.30;93.10;;;;;;4935860;29;20043;-69
2022/08/01 10:25:37;;;;;;;4.57;0.95;;;27.20;92.90;;;;;;4918724;29;20028;-68
2022/08/01 10:28:16;;;;;;;0.15;0.10;;;27.50;92.70;;;;;;4919027;29;20050;-70
2022/08/01 10:30:43;;;;;;;0.65;0.35;;;27.80;92.40;;;;;;4934279;29;20030;-70
2022/08/01 10:33:10;;;;;;;0.10;0.10;;;28.10;92.10;;;;;;4934214;29;20031;-69
2022/08/01 10:35:38;;;;;;;0.00;0.00;;;28.10;91.40;;;;;;4934197;29;20511;-71
2022/08/01 10:38:06;;;;;;;0.75;0.43;;;28.10;91.30;;;;;;4950450;28;20051;-69
2022/08/01 10:40:32;;;;;;;0.05;0.00;;;28.40;91.70;;;;;;4949417;29;20481;-70
2022/08/01 10:42:58;;;;;;;0.17;0.00;;;28.10;91.40;;;;;;4935455;29;20048;-69
2022/08/01 10:45:27;;;;;;;0.03;0.03;;;28.20;91.20;;;;;;4934014;29;20024;-69
2022/08/01 10:48:20;;;;;;;0.15;0.15;;;28.00;91.00;;;;;;4934554;29;20656;-70
2022/08/01 10:50:51;;;;;;;0.00;0.00;;;27.80;91.50;;;;;;4935047;29;20035;-69
2022/08/01 10:53:22;;;;;;;0.10;0.10;;;28.00;91.70;;;;;;4934072;29;20175;-68
2022/08/01 10:56:00;;;;;;;0.22;0.17;;;27.60;91.60;;;;;;4935168;29;20122;-69
2022/08/01 10:58:40;;;;;;;0.00;0.00;;;27.10;92.10;;;;;;4935391;29;20032;-70
2022/08/01 11:01:31;;;;;;;0.08;0.05;;;26.90;92.60;;;;;;4933951;29;20106;-70
2022/08/01 11:04:10;;;;;;;0.00;0.00;;;27.10;92.10;;;;;;4933442;29;20035;-69
2022/08/01 11:07:06;;;;;;;6.40;0.60;;;26.90;92.20;;;;;;4935108;29;20477;-70
2022/08/01 11:09:45;;;;;;;0.17;0.17;;;26.80;92.50;;;;;;4934572;29;20046;-70
2022/08/01 11:12:14;;;;;;;0.00;0.00;;;26.50;92.80;;;;;;4918713;29;20024;-72
2022/08/01 11:14:58;;;;;;;0.00;0.00;;;26.90;92.70;;;;;;4935039;29;20039;-71
2022/08/01 11:17:39;;;;;;;0.98;0.43;;;27.30;92.30;;;;;;4934889;29;20073;-71
2022/08/01 11:20:21;;;;;;;0.10;0.08;;;27.50;91.90;;;;;;4934586;29;20403;-72
2022/08/01 11:23:00;;;;;;;0.55;0.35;;;28.20;92.00;;;;;;4949303;29;20031;-73
2022/08/01 11:25:47;;;;;;;0.77;0.20;;;28.30;91.40;;;;;;4934763;29;20035;-71
2022/08/01 11:28:16;;;;;;;0.35;0.30;;;28.30;91.00;;;;;;4929707;29;20040;-72
2022/08/01 11:30:52;;;;;;;0.20;0.10;;;28.00;91.10;;;;;;4933551;29;20051;-72
2022/08/01 11:33:38;;;;;;;0.00;0.00;;;28.20;90.90;;;;;;4934629;29;20047;-72
2022/08/01 11:36:10;;;;;;;0.30;0.30;;;27.90;91.00;;;;;;4928092;29;20028;-72
2022/08/01 11:38:44;;;;;;;4.20;0.47;;;28.00;91.10;;;;;;4915991;29;20041;-71
2022/08/01 11:41:14;;;;;;;0.08;0.08;;;28.30;90.80;;;;;;4930652;29;20082;-71
2022/08/01 11:44:04;;;;;;;0.10;0.00;;;28.50;90.50;;;;;;4934128;29;20042;-72
2022/08/01 11:46:59;;;;;;;0.22;0.08;;;28.80;90.20;;;;;;4934750;29;20074;-71
2022/08/01 11:49:47;;;;;;;0.00;0.00;;;29.20;89.70;;;;;;4934122;29;20054;-69
2022/08/01 11:52:35;;;;;;;0.00;0.00;;;29.50;89.20;;;;;;4934028;29;20219;-69
2022/08/01 11:55:01;;;;;;;1.95;0.32;;;29.80;88.50;;;;;;4948236;29;20027;-70
2022/08/01 11:57:30;;;;;;;0.00;0.00;;;29.50;89.30;;;;;;4934375;29;20094;-68
2022/08/01 11:59:58;;;;;;;0.60;0.60;;;29.40;89.00;;;;;;4935933;29;20028;-69
2022/08/01 12:02:27;;;;;;;0.20;0.10;;;29.90;87.60;;;;;;4948515;29;20027;-69
2022/08/01 12:05:06;;;;;;;0.00;0.00;;;30.00;86.90;;;;;;4948860;29;20090;-70
2022/08/01 12:07:35;;;;;;;0.03;0.03;;;29.90;86.90;;;;;;4936589;29;20034;-69
2022/08/01 12:10:17;;;;;;;0.22;0.20;;;29.70;86.90;;;;;;4933469;29;20436;-70
2022/08/01 12:13:00;;;;;;;0.00;0.00;;;29.70;87.10;;;;;;4933727;29;20114;-70
2022/08/01 12:15:37;;;;;;;2.63;1.55;;;29.80;87.30;;;;;;4932711;29;20032;-72
2022/08/01 12:18:06;;;;;;;0.00;0.00;;;29.60;86.10;;;;;;4933665;29;20504;-70
2022/08/01 12:20:34;;;;;;;0.10;0.10;;;29.70;85.90;;;;;;4933247;29;20036;-70
2022/08/01 12:23:05;;;;;;;0.43;0.22;;;29.10;86.90;;;;;;4948161;29;20034;-69
2022/08/01 12:25:32;;;;;;;0.00;0.00;;;29.10;87.10;;;;;;4932075;29;20031;-71
2022/08/01 12:28:03;;;;;;;0.00;0.00;;;29.10;86.60;;;;;;4933556;29;20388;-70
2022/08/01 12:30:30;;;;;;;0.20;0.10;;;28.70;86.90;;;;;;4933388;29;20087;-70
2022/08/01 12:32:57;;;;;;;0.08;0.00;;;28.70;85.90;;;;;;4932207;29;20038;-70
2022/08/01 12:35:29;;;;;;;0.45;0.10;;;28.90;86.10;;;;;;4933821;29;20114;-70
2022/08/01 12:38:18;;;;;;;0.38;0.17;;;28.70;86.80;;;;;;4932444;29;20032;-70
2022/08/01 12:40:47;;;;;;;1.02;0.60;;;29.40;86.10;;;;;;4932949;29;20068;-70
2022/08/01 12:43:19;;;;;;;0.80;0.20;;;29.30;84.30;;;;;;4933119;29;20075;-69
2022/08/01 12:45:49;;;;;;;0.00;0.00;;;29.70;85.00;;;;;;4933671;29;20393;-71
2022/08/01 12:48:16;;;;;;;0.83;0.57;;;29.70;84.20;;;;;;4933482;29;20024;-68
2022/08/01 12:50:49;;;;;;;0.15;0.08;;;29.50;83.90;;;;;;4931951;29;20816;-71
2022/08/01 12:53:18;;;;;;;0.00;0.00;;;30.10;84.50;;;;;;4931924;29;20035;-69
2022/08/01 12:55:53;;;;;;;0.17;0.17;;;29.90;84.50;;;;;;4932170;29;20094;-70
2022/08/01 12:58:21;;;;;;;0.10;0.05;;;29.10;83.50;;;;;;4933330;29;20392;-70
2022/08/01 13:00:50;;;;;;;0.00;0.00;;;29.70;82.10;;;;;;4932115;29;20034;-68
2022/08/01 13:03:20;;;;;;;0.00;0.00;;;29.60;83.10;;;;;;4932791;29;20075;-68